Time;durP1;ratioP1;P1;durP2;ratioP2;P2;SDS_P1;SDS_P2;PMS_P1;PMS_P2;Temp;Humidity;BMP_temperature;BMP_pressure;BME280_temperature;BME280_humidity;BME280_pressure;Samples;Min_cycle;Max_cycle;Signal;HPM_P1;HPM_P2
2022/06/10 00:00:24;;;;;;;19.40;5.27;;;;;;;;;;5092608;28;20865;-73
2022/06/10 00:02:53;;;;;;;16.13;5.20;;;;;;;;;;5092775;28;20489;-72
2022/06/10 00:05:22;;;;;;;14.07;4.60;;;;;;;;;;5092640;28;20446;-72
2022/06/10 00:07:49;;;;;;;29.27;5.03;;;;;;;;;;5092632;28;20442;-72
2022/06/10 00:10:18;;;;;;;16.60;4.93;;;;;;;;;;5092379;28;20442;-72
2022/06/10 00:12:45;;;;;;;15.47;4.40;;;;;;;;;;5092627;28;20442;-72
2022/06/10 00:15:13;;;;;;;16.47;4.77;;;;;;;;;;5092385;28;20442;-72
2022/06/10 00:17:40;;;;;;;13.87;4.20;;;;;;;;;;5092390;28;20438;-72
2022/06/10 00:20:11;;;;;;;17.77;6.17;;;;;;;;;;5092314;28;20982;-72
2022/06/10 00:22:38;;;;;;;15.87;4.43;;;;;;;;;;5092141;28;20485;-72
2022/06/10 00:25:06;;;;;;;15.23;4.17;;;;;;;;;;5092116;28;20447;-72
2022/06/10 00:27:33;;;;;;;15.50;4.83;;;;;;;;;;5092344;28;20442;-72
2022/06/10 00:30:01;;;;;;;17.70;4.80;;;;;;;;;;5092101;28;20441;-72
2022/06/10 00:32:28;;;;;;;18.27;5.60;;;;;;;;;;5091825;28;20847;-72
2022/06/10 00:34:56;;;;;;;19.97;4.80;;;;;;;;;;5092262;28;20434;-72
2022/06/10 00:37:25;;;;;;;15.87;4.87;;;;;;;;;;5092013;28;20446;-73
2022/06/10 00:39:52;;;;;;;16.27;5.07;;;;;;;;;;5091924;28;20445;-72
2022/06/10 00:42:20;;;;;;;21.87;5.30;;;;;;;;;;5091853;28;20480;-73
2022/06/10 00:44:49;;;;;;;15.33;4.33;;;;;;;;;;5091693;28;20434;-72
2022/06/10 00:47:19;;;;;;;17.50;4.23;;;;;;;;;;5092001;28;20442;-72
2022/06/10 00:49:48;;;;;;;15.00;4.10;;;;;;;;;;5091805;28;21071;-72
2022/06/10 00:52:22;;;;;;;15.10;4.37;;;;;;;;;;5091498;28;20453;-73
2022/06/10 00:54:53;;;;;;;14.73;4.33;;;;;;;;;;5092246;28;20877;-72
2022/06/10 00:57:21;;;;;;;15.93;4.40;;;;;;;;;;5092089;28;20521;-72
2022/06/10 00:59:50;;;;;;;15.07;4.80;;;;;;;;;;5091559;28;20478;-72
2022/06/10 01:02:19;;;;;;;15.93;4.87;;;;;;;;;;5091540;28;20478;-73
2022/06/10 01:04:47;;;;;;;15.67;4.90;;;;;;;;;;5091676;28;20453;-72
2022/06/10 01:07:17;;;;;;;17.87;4.87;;;;;;;;;;5091673;28;20950;-72
2022/06/10 01:09:45;;;;;;;17.60;4.40;;;;;;;;;;5091844;28;20422;-72
2022/06/10 01:12:31;;;;;;;17.33;5.57;;;;;;;;;;5091625;28;20437;-73
2022/06/10 01:15:04;;;;;;;26.30;5.60;;;;;;;;;;5091448;28;20457;-72
2022/06/10 01:17:42;;;;;;;16.10;5.03;;;;;;;;;;5091688;28;20468;-72
2022/06/10 01:20:17;;;;;;;13.90;4.30;;;;;;;;;;5091629;28;20500;-72
2022/06/10 01:22:56;;;;;;;16.90;4.90;;;;;;;;;;5091819;28;20476;-72
2022/06/10 01:25:43;;;;;;;18.37;5.53;;;;;;;;;;5091722;28;20453;-73
2022/06/10 01:28:17;;;;;;;16.47;4.43;;;;;;;;;;5091570;28;20438;-75
2022/06/10 01:30:51;;;;;;;14.73;4.87;;;;;;;;;;5091679;28;20438;-72
2022/06/10 01:33:21;;;;;;;16.43;5.10;;;;;;;;;;5091683;28;20817;-72
2022/06/10 01:35:53;;;;;;;17.50;5.40;;;;;;;;;;5091493;28;20943;-72
2022/06/10 01:38:24;;;;;;;15.97;4.70;;;;;;;;;;5091464;28;20446;-72
2022/06/10 01:40:56;;;;;;;15.63;4.83;;;;;;;;;;5091863;28;20453;-72
2022/06/10 01:43:30;;;;;;;16.23;5.27;;;;;;;;;;5091361;28;20478;-73
2022/06/10 01:46:03;;;;;;;17.37;5.43;;;;;;;;;;5091306;28;20438;-73
2022/06/10 01:48:34;;;;;;;18.77;6.40;;;;;;;;;;5091005;28;20449;-72
2022/06/10 01:51:05;;;;;;;22.90;6.03;;;;;;;;;;5091531;28;20438;-72
2022/06/10 01:53:35;;;;;;;19.43;6.30;;;;;;;;;;5091390;28;20442;-73
2022/06/10 01:56:05;;;;;;;19.67;6.30;;;;;;;;;;5091910;28;20445;-72
2022/06/10 01:58:36;;;;;;;17.77;6.40;;;;;;;;;;5094752;28;20831;-72
2022/06/10 02:01:08;;;;;;;17.03;6.30;;;;;;;;;;5095035;28;20446;-72
2022/06/10 02:03:38;;;;;;;29.73;7.60;;;;;;;;;;5094859;28;20481;-72
2022/06/10 02:06:08;;;;;;;20.20;5.83;;;;;;;;;;5095168;28;20430;-72
2022/06/10 02:08:39;;;;;;;17.20;6.40;;;;;;;;;;5094726;28;20445;-72
2022/06/10 02:11:07;;;;;;;17.80;6.47;;;;;;;;;;5095028;28;20435;-72
2022/06/10 02:13:38;;;;;;;20.53;6.87;;;;;;;;;;5094657;28;20444;-72
2022/06/10 02:16:10;;;;;;;22.93;7.57;;;;;;;;;;5094889;28;20434;-72
2022/06/10 02:18:41;;;;;;;19.30;7.30;;;;;;;;;;5094542;28;20449;-72
2022/06/10 02:21:14;;;;;;;18.90;7.00;;;;;;;;;;5094483;28;20469;-72
2022/06/10 02:23:43;;;;;;;19.80;6.03;;;;;;;;;;5094439;28;20477;-72
2022/06/10 02:26:11;;;;;;;18.20;6.07;;;;;;;;;;5094615;28;20966;-71
2022/06/10 02:28:41;;;;;;;19.33;6.80;;;;;;;;;;5094328;28;20491;-72
2022/06/10 02:31:13;;;;;;;21.70;7.50;;;;;;;;;;5094272;28;20475;-72
2022/06/10 02:33:41;;;;;;;18.37;7.00;;;;;;;;;;5094439;28;20434;-73
2022/06/10 02:36:12;;;;;;;26.63;8.27;;;;;;;;;;5094207;28;20437;-73
2022/06/10 02:38:42;;;;;;;24.23;7.77;;;;;;;;;;5094843;28;20851;-72
2022/06/10 02:41:12;;;;;;;24.73;8.93;;;;;;;;;;5094528;28;20856;-72
2022/06/10 02:43:45;;;;;;;22.00;8.60;;;;;;;;;;5094063;28;20473;-73
2022/06/10 02:46:17;;;;;;;20.00;8.20;;;;;;;;;;5094110;28;20450;-72
2022/06/10 02:48:48;;;;;;;27.50;8.10;;;;;;;;;;5094106;28;20528;-72
2022/06/10 02:51:16;;;;;;;19.90;6.77;;;;;;;;;;5094110;28;20437;-72
2022/06/10 02:53:43;;;;;;;22.50;8.30;;;;;;;;;;5094082;28;20444;-72
2022/06/10 02:56:18;;;;;;;22.43;7.27;;;;;;;;;;5093734;28;20442;-72
2022/06/10 03:01:40;;;;;;;19.93;6.60;;;;;;;;;;5093920;28;20457;-72
2022/06/10 03:04:13;;;;;;;25.90;9.20;;;;;;;;;;5093654;28;20492;-72
2022/06/10 03:06:45;;;;;;;23.10;8.97;;;;;;;;;;5093677;28;20445;-72
2022/06/10 03:09:16;;;;;;;23.90;8.87;;;;;;;;;;5093824;28;20446;-72
2022/06/10 03:11:49;;;;;;;25.30;10.50;;;;;;;;;;5093447;28;20444;-72
2022/06/10 03:14:23;;;;;;;25.90;10.17;;;;;;;;;;5093270;28;20939;-72
2022/06/10 03:16:56;;;;;;;22.97;9.47;;;;;;;;;;5094109;28;20440;-72
2022/06/10 03:19:33;;;;;;;18.53;7.57;;;;;;;;;;5093415;28;20532;-72
2022/06/10 03:22:05;;;;;;;21.40;8.07;;;;;;;;;;5093363;28;20438;-72
2022/06/10 03:24:36;;;;;;;20.27;7.93;;;;;;;;;;5093028;28;20489;-72
2022/06/10 03:27:10;;;;;;;19.20;7.07;;;;;;;;;;5093257;28;20450;-72
2022/06/10 03:29:44;;;;;;;21.13;6.87;;;;;;;;;;5093484;28;20438;-72
2022/06/10 03:32:15;;;;;;;22.97;9.30;;;;;;;;;;5092947;28;20466;-73
2022/06/10 03:34:44;;;;;;;24.23;8.33;;;;;;;;;;5093013;28;20825;-72
2022/06/10 03:37:13;;;;;;;28.70;10.30;;;;;;;;;;5092956;28;20434;-72
2022/06/10 03:39:41;;;;;;;26.60;10.73;;;;;;;;;;5092933;28;20978;-72
2022/06/10 03:42:15;;;;;;;38.53;14.10;;;;;;;;;;5093105;28;20442;-72
2022/06/10 03:44:43;;;;;;;37.40;12.73;;;;;;;;;;5092924;28;20486;-72
2022/06/10 03:47:16;;;;;;;26.63;11.20;;;;;;;;;;5092979;28;20442;-72
2022/06/10 03:49:47;;;;;;;27.27;12.37;;;;;;;;;;5092933;28;20459;-72
2022/06/10 03:52:17;;;;;;;25.60;10.97;;;;;;;;;;5092718;28;20437;-73
2022/06/10 03:54:45;;;;;;;24.60;11.00;;;;;;;;;;5092841;28;20810;-72
2022/06/10 03:57:13;;;;;;;31.33;13.70;;;;;;;;;;5093013;28;20438;-73
2022/06/10 03:59:41;;;;;;;30.50;12.93;;;;;;;;;;5092483;28;20478;-74
2022/06/10 04:02:09;;;;;;;29.17;12.57;;;;;;;;;;5092600;28;20986;-73
2022/06/10 04:04:38;;;;;;;41.20;15.20;;;;;;;;;;5092512;28;20560;-73
2022/06/10 04:07:05;;;;;;;34.43;13.83;;;;;;;;;;5092276;28;20446;-74
2022/06/10 04:09:33;;;;;;;34.57;17.10;;;;;;;;;;5092485;28;20443;-73
2022/06/10 04:12:02;;;;;;;34.87;17.37;;;;;;;;;;5092415;28;20442;-73
2022/06/10 04:14:29;;;;;;;31.00;15.30;;;;;;;;;;5092316;28;20434;-73
2022/06/10 04:16:57;;;;;;;32.60;16.35;;;;;;;;;;5092055;28;20783;-73
2022/06/10 04:19:25;;;;;;;30.30;14.90;;;;;;;;;;5091833;28;20447;-74
2022/06/10 04:21:54;;;;;;;29.03;13.63;;;;;;;;;;5092212;28;20196;-74
2022/06/10 04:24:21;;;;;;;31.93;15.27;;;;;;;;;;5091944;28;20484;-75
2022/06/10 04:26:49;;;;;;;30.10;12.70;;;;;;;;;;5092049;28;20437;-74
2022/06/10 04:29:17;;;;;;;25.87;13.10;;;;;;;;;;5092336;28;20449;-74
2022/06/10 04:31:45;;;;;;;25.27;11.77;;;;;;;;;;5092405;28;20450;-74
2022/06/10 04:34:12;;;;;;;30.00;12.87;;;;;;;;;;5092194;28;20427;-74
2022/06/10 04:36:40;;;;;;;30.60;13.00;;;;;;;;;;5092555;28;20446;-75
2022/06/10 04:39:09;;;;;;;28.13;11.47;;;;;;;;;;5091886;28;20818;-74
2022/06/10 04:41:37;;;;;;;26.67;12.60;;;;;;;;;;5092591;28;20450;-74
2022/06/10 04:44:05;;;;;;;28.63;12.20;;;;;;;;;;5092135;28;20482;-74
2022/06/10 04:46:34;;;;;;;29.97;13.30;;;;;;;;;;5091628;28;20820;-74
2022/06/10 04:49:02;;;;;;;34.00;13.10;;;;;;;;;;5091541;28;20545;-75
2022/06/10 04:51:29;;;;;;;31.63;13.60;;;;;;;;;;5091809;28;20453;-74
2022/06/10 04:53:58;;;;;;;30.23;13.40;;;;;;;;;;5091830;28;20460;-75
2022/06/10 04:56:26;;;;;;;32.30;15.77;;;;;;;;;;5091796;28;20441;-74
2022/06/10 04:58:54;;;;;;;30.10;13.83;;;;;;;;;;5091710;28;20970;-74
2022/06/10 05:01:21;;;;;;;28.07;12.63;;;;;;;;;;5092002;28;20440;-74
2022/06/10 05:03:49;;;;;;;32.37;13.63;;;;;;;;;;5091691;28;20481;-73
2022/06/10 05:06:16;;;;;;;33.13;15.77;;;;;;;;;;5090246;28;20440;-73
2022/06/10 05:08:44;;;;;;;28.87;11.60;;;;;;;;;;5089400;28;20439;-74
2022/06/10 05:11:12;;;;;;;31.13;13.17;;;;;;;;;;5090222;28;20449;-74
2022/06/10 05:13:41;;;;;;;32.67;13.73;;;;;;;;;;5091144;28;20442;-73
2022/06/10 05:16:08;;;;;;;35.80;14.40;;;;;;;;;;5091085;28;20453;-73
2022/06/10 05:18:36;;;;;;;33.73;14.07;;;;;;;;;;5089873;28;20979;-75
2022/06/10 05:21:03;;;;;;;30.60;14.80;;;;;;;;;;5089042;28;20952;-73
2022/06/10 05:23:31;;;;;;;30.90;14.80;;;;;;;;;;5088829;28;20485;-73
2022/06/10 05:25:58;;;;;;;32.80;14.83;;;;;;;;;;5088916;28;20522;-74
2022/06/10 05:28:27;;;;;;;34.13;16.17;;;;;;;;;;5088876;28;20448;-73
2022/06/10 05:30:56;;;;;;;37.10;15.07;;;;;;;;;;5088978;28;20498;-74
2022/06/10 05:33:23;;;;;;;32.50;15.23;;;;;;;;;;5092911;28;20442;-74
2022/06/10 05:35:51;;;;;;;30.27;14.07;;;;;;;;;;5095718;28;20779;-74
2022/06/10 05:38:18;;;;;;;36.87;13.83;;;;;;;;;;5094616;28;20437;-73
2022/06/10 05:40:46;;;;;;;26.17;13.00;;;;;;;;;;5095761;28;20437;-74
2022/06/10 05:43:14;;;;;;;29.23;13.23;;;;;;;;;;5095233;28;20962;-73
2022/06/10 05:45:42;;;;;;;29.67;13.93;;;;;;;;;;5095377;28;20438;-73
2022/06/10 05:48:12;;;;;;;29.60;14.83;;;;;;;;;;5095203;28;20459;-73
2022/06/10 05:50:41;;;;;;;29.17;13.87;;;;;;;;;;5095033;28;20468;-74
2022/06/10 05:53:12;;;;;;;35.47;16.40;;;;;;;;;;5095258;28;20442;-73
2022/06/10 05:55:39;;;;;;;32.87;15.17;;;;;;;;;;5095393;28;20434;-73
2022/06/10 05:58:07;;;;;;;27.40;14.60;;;;;;;;;;5094986;28;20462;-73
2022/06/10 06:00:34;;;;;;;30.30;14.13;;;;;;;;;;5095570;28;20489;-74
2022/06/10 06:03:03;;;;;;;35.73;14.93;;;;;;;;;;5095257;28;20931;-73
2022/06/10 06:05:31;;;;;;;30.83;13.67;;;;;;;;;;5095089;28;20484;-73
2022/06/10 06:07:59;;;;;;;28.43;14.77;;;;;;;;;;5094942;28;20443;-73
2022/06/10 06:10:27;;;;;;;31.00;15.90;;;;;;;;;;5094762;28;20446;-73
2022/06/10 06:12:55;;;;;;;31.33;16.33;;;;;;;;;;5094780;28;20454;-73
2022/06/10 06:15:22;;;;;;;40.50;15.73;;;;;;;;;;5094699;28;20458;-73
2022/06/10 06:17:52;;;;;;;32.20;15.03;;;;;;;;;;5094633;28;20944;-73
2022/06/10 06:20:20;;;;;;;32.47;16.30;;;;;;;;;;5094626;28;20494;-73
2022/06/10 06:22:49;;;;;;;27.47;14.50;;;;;;;;;;5094695;28;20445;-74
2022/06/10 06:25:17;;;;;;;30.80;14.40;;;;;;;;;;5094331;28;20486;-74
2022/06/10 06:27:45;;;;;;;26.50;13.43;;;;;;;;;;5094397;28;20821;-74
2022/06/10 06:30:17;;;;;;;30.50;14.13;;;;;;;;;;5094642;28;20442;-73
2022/06/10 06:32:44;;;;;;;23.33;11.60;;;;;;;;;;5094450;28;20443;-73
2022/06/10 06:35:12;;;;;;;28.07;13.20;;;;;;;;;;5094429;28;20442;-74
2022/06/10 06:37:40;;;;;;;27.83;13.60;;;;;;;;;;5094308;28;20444;-74
2022/06/10 06:40:11;;;;;;;31.43;13.67;;;;;;;;;;5093981;28;20457;-74
2022/06/10 06:42:38;;;;;;;26.37;11.77;;;;;;;;;;5094263;28;20448;-74
2022/06/10 06:45:07;;;;;;;27.80;14.07;;;;;;;;;;5094143;28;20478;-73
2022/06/10 06:58:40;;;;;;;33.30;15.90;;;;;;;;;;5083823;27;1409949;-74
2022/06/10 07:01:07;;;;;;;29.80;14.20;;;;;;;;;;5109286;28;20817;-74
2022/06/10 07:03:34;;;;;;;32.43;14.80;;;;;;;;;;5109590;28;20446;-73
2022/06/10 07:06:02;;;;;;;29.27;13.83;;;;;;;;;;5109159;28;20438;-74
2022/06/10 07:08:32;;;;;;;30.10;14.23;;;;;;;;;;5109524;28;20447;-73
2022/06/10 07:10:59;;;;;;;30.93;16.00;;;;;;;;;;5109086;28;20437;-73
2022/06/10 07:13:27;;;;;;;30.30;15.47;;;;;;;;;;5109155;28;20453;-74
2022/06/10 07:15:56;;;;;;;31.10;14.60;;;;;;;;;;5109288;28;20442;-74
2022/06/10 07:18:24;;;;;;;31.63;14.10;;;;;;;;;;5109129;28;20441;-74
2022/06/10 07:20:52;;;;;;;25.03;12.70;;;;;;;;;;5109157;28;20443;-73
2022/06/10 07:23:19;;;;;;;30.13;15.40;;;;;;;;;;5109008;28;20448;-74
2022/06/10 07:25:47;;;;;;;30.00;13.73;;;;;;;;;;5108994;28;20441;-73
2022/06/10 07:28:15;;;;;;;28.43;13.40;;;;;;;;;;5109101;28;20864;-74
2022/06/10 07:30:43;;;;;;;27.10;13.80;;;;;;;;;;5108912;28;20437;-74
2022/06/10 07:33:13;;;;;;;28.50;14.20;;;;;;;;;;5108688;28;20942;-73
2022/06/10 07:35:41;;;;;;;31.90;13.73;;;;;;;;;;5108118;28;20436;-73
2022/06/10 07:38:08;;;;;;;28.30;12.87;;;;;;;;;;5107806;28;20808;-73
2022/06/10 07:43:26;;;;;;;32.33;15.27;;;;;;;;;;5107745;28;20526;-74
2022/06/10 07:45:54;;;;;;;33.30;13.90;;;;;;;;;;5108014;28;20430;-73
2022/06/10 07:48:23;;;;;;;28.50;12.77;;;;;;;;;;5107471;28;20584;-73
2022/06/10 07:50:51;;;;;;;25.90;13.27;;;;;;;;;;5107534;28;20441;-74
2022/06/10 07:53:18;;;;;;;31.77;14.20;;;;;;;;;;5107366;28;20437;-74
2022/06/10 07:55:46;;;;;;;25.57;11.83;;;;;;;;;;5107322;28;20441;-74
2022/06/10 07:58:14;;;;;;;25.73;11.50;;;;;;;;;;5101839;28;20551;-73
2022/06/10 08:00:42;;;;;;;24.70;11.57;;;;;;;;;;5093813;28;20442;-74
2022/06/10 08:03:09;;;;;;;24.50;12.10;;;;;;;;;;5093700;28;20442;-74
2022/06/10 08:05:39;;;;;;;25.57;12.20;;;;;;;;;;5093866;28;20445;-73
2022/06/10 08:08:08;;;;;;;26.47;11.87;;;;;;;;;;5093736;28;20473;-73
2022/06/10 08:10:37;;;;;;;23.23;10.80;;;;;;;;;;5093491;28;20532;-73
2022/06/10 08:13:04;;;;;;;26.50;9.77;;;;;;;;;;5093351;28;20972;-73
2022/06/10 08:15:32;;;;;;;24.20;9.87;;;;;;;;;;5093529;28;20442;-73
2022/06/10 08:18:00;;;;;;;25.67;10.90;;;;;;;;;;5093440;28;20442;-74
2022/06/10 08:23:12;;;;;;;25.00;10.63;;;;;;;;;;5092340;28;20467;-74
2022/06/10 08:25:40;;;;;;;23.20;10.07;;;;;;;;;;5093427;28;20960;-74
2022/06/10 08:28:07;;;;;;;24.83;10.87;;;;;;;;;;5093073;28;21028;-73
2022/06/10 08:30:35;;;;;;;27.03;11.40;;;;;;;;;;5093176;28;21021;-73
2022/06/10 08:33:03;;;;;;;22.57;11.33;;;;;;;;;;5092990;28;20450;-74
2022/06/10 08:35:31;;;;;;;22.33;10.33;;;;;;;;;;5093079;28;20452;-74
2022/06/10 08:37:59;;;;;;;23.27;10.30;;;;;;;;;;5093377;28;20864;-73
2022/06/10 08:40:32;;;;;;;22.23;9.97;;;;;;;;;;5093253;28;20481;-74
2022/06/10 08:43:03;;;;;;;24.33;10.63;;;;;;;;;;5092802;28;20453;-76
2022/06/10 08:45:34;;;;;;;23.30;8.63;;;;;;;;;;5093275;28;20430;-73
2022/06/10 08:48:10;;;;;;;20.40;9.87;;;;;;;;;;5092706;28;20485;-73
2022/06/10 08:50:47;;;;;;;22.33;9.17;;;;;;;;;;5092703;28;20447;-73
2022/06/10 08:53:20;;;;;;;21.20;9.33;;;;;;;;;;5092698;28;20934;-73
2022/06/10 08:55:54;;;;;;;20.07;8.67;;;;;;;;;;5092747;28;20525;-74
2022/06/10 08:58:23;;;;;;;21.47;9.80;;;;;;;;;;5093057;28;20481;-73
2022/06/10 09:00:53;;;;;;;20.33;9.27;;;;;;;;;;5092718;28;20453;-73
2022/06/10 09:03:22;;;;;;;21.67;8.90;;;;;;;;;;5092441;28;20446;-73
2022/06/10 09:05:50;;;;;;;23.57;9.50;;;;;;;;;;5092702;28;20503;-73
2022/06/10 09:08:19;;;;;;;20.17;9.50;;;;;;;;;;5092425;28;20482;-72
2022/06/10 09:10:50;;;;;;;21.73;8.93;;;;;;;;;;5091534;28;20441;-74
2022/06/10 09:13:39;;;;;;;20.77;8.30;;;;;;;;;;5092341;28;20939;-73
2022/06/10 09:16:10;;;;;;;21.77;10.33;;;;;;;;;;5086421;28;21033;-74
2022/06/10 09:18:42;;;;;;;24.13;10.10;;;;;;;;;;5092371;28;20996;-74
2022/06/10 09:21:13;;;;;;;24.53;11.60;;;;;;;;;;5092161;28;20434;-73
2022/06/10 09:23:42;;;;;;;18.70;7.73;;;;;;;;;;5092222;28;20450;-73
2022/06/10 09:26:12;;;;;;;24.30;11.00;;;;;;;;;;5092186;28;20435;-73
2022/06/10 09:28:42;;;;;;;20.60;8.67;;;;;;;;;;5092046;28;20475;-72
2022/06/10 09:31:14;;;;;;;23.63;10.00;;;;;;;;;;5092008;28;20446;-74
2022/06/10 09:33:45;;;;;;;20.87;8.37;;;;;;;;;;5092018;28;20446;-73
2022/06/10 09:36:15;;;;;;;21.53;9.47;;;;;;;;;;5092112;28;20432;-73
2022/06/10 09:38:46;;;;;;;18.90;8.27;;;;;;;;;;5091997;28;20450;-73
2022/06/10 09:41:16;;;;;;;20.60;9.00;;;;;;;;;;5091813;28;20444;-73
2022/06/10 09:43:50;;;;;;;22.00;9.20;;;;;;;;;;5091911;28;20446;-73
2022/06/10 09:46:27;;;;;;;22.23;10.20;;;;;;;;;;5091831;28;20441;-73
2022/06/10 09:49:01;;;;;;;21.57;9.40;;;;;;;;;;5091988;28;20481;-73
2022/06/10 09:51:33;;;;;;;28.33;11.13;;;;;;;;;;5091752;28;20813;-75
2022/06/10 09:54:06;;;;;;;20.13;8.60;;;;;;;;;;5091683;28;20446;-74
2022/06/10 09:56:40;;;;;;;21.23;9.10;;;;;;;;;;5091512;28;20463;-74
2022/06/10 09:59:17;;;;;;;20.37;8.67;;;;;;;;;;5091477;28;20515;-73
2022/06/10 10:01:50;;;;;;;24.67;9.60;;;;;;;;;;5091797;28;20440;-73
2022/06/10 10:04:32;;;;;;;20.73;9.27;;;;;;;;;;5091630;28;20434;-73
2022/06/10 10:07:02;;;;;;;22.20;8.97;;;;;;;;;;5088799;28;20497;-72
2022/06/10 10:09:39;;;;;;;25.43;10.00;;;;;;;;;;5091418;28;20971;-73
2022/06/10 10:12:14;;;;;;;23.90;11.20;;;;;;;;;;5091694;28;20431;-73
2022/06/10 10:14:46;;;;;;;21.13;10.47;;;;;;;;;;5091514;28;20442;-74
2022/06/10 10:17:28;;;;;;;24.07;10.83;;;;;;;;;;5091227;28;20957;-73
2022/06/10 10:20:01;;;;;;;22.33;10.37;;;;;;;;;;5091240;28;20438;-74
2022/06/10 10:22:52;;;;;;;22.60;9.80;;;;;;;;;;5091292;28;20458;-73
2022/06/10 10:25:22;;;;;;;21.43;9.83;;;;;;;;;;5071146;28;21052;-73
2022/06/10 10:27:50;;;;;;;22.90;10.30;;;;;;;;;;5091071;28;20574;-73
2022/06/10 10:30:20;;;;;;;19.93;8.23;;;;;;;;;;5091384;28;20525;-73
2022/06/10 10:32:51;;;;;;;21.43;9.00;;;;;;;;;;5091196;28;20435;-72
2022/06/10 10:35:20;;;;;;;22.40;8.43;;;;;;;;;;5090989;28;20870;-73
2022/06/10 10:37:52;;;;;;;21.37;8.40;;;;;;;;;;5091180;28;20440;-73
2022/06/10 10:40:21;;;;;;;21.00;8.50;;;;;;;;;;5091049;28;20444;-73
2022/06/10 10:42:51;;;;;;;17.87;7.47;;;;;;;;;;5090870;28;20837;-73
2022/06/10 10:45:21;;;;;;;19.13;7.60;;;;;;;;;;5090971;28;20810;-73
2022/06/10 10:47:52;;;;;;;20.30;8.03;;;;;;;;;;5090873;28;20577;-73
2022/06/10 10:50:21;;;;;;;19.20;8.43;;;;;;;;;;5090937;28;20975;-72
2022/06/10 10:52:49;;;;;;;22.77;9.00;;;;;;;;;;5090902;28;20942;-73
2022/06/10 10:55:29;;;;;;;20.70;8.70;;;;;;;;;;5090672;28;20950;-74
2022/06/10 10:58:08;;;;;;;20.00;7.80;;;;;;;;;;5090893;28;20475;-74
2022/06/10 11:00:38;;;;;;;18.80;7.23;;;;;;;;;;5090852;28;20954;-73
2022/06/10 11:03:23;;;;;;;20.83;7.83;;;;;;;;;;5090729;28;20438;-73
2022/06/10 11:05:52;;;;;;;35.90;7.37;;;;;;;;;;5091149;28;20439;-73
2022/06/10 11:08:24;;;;;;;20.47;7.93;;;;;;;;;;5090829;28;20909;-73
2022/06/10 11:10:55;;;;;;;18.37;7.20;;;;;;;;;;5090878;28;20440;-73
2022/06/10 11:13:26;;;;;;;20.20;8.37;;;;;;;;;;5090494;28;20446;-73
2022/06/10 11:15:54;;;;;;;17.97;7.70;;;;;;;;;;5090621;28;20456;-73
2022/06/10 11:18:23;;;;;;;18.07;6.83;;;;;;;;;;5090657;28;20541;-73
2022/06/10 11:20:51;;;;;;;16.30;5.97;;;;;;;;;;5090600;28;20435;-73
2022/06/10 11:23:22;;;;;;;19.87;7.83;;;;;;;;;;5090495;28;20446;-73
2022/06/10 11:26:03;;;;;;;19.60;8.47;;;;;;;;;;5090736;28;20488;-73
2022/06/10 11:28:34;;;;;;;19.00;7.00;;;;;;;;;;5090489;28;20489;-73
2022/06/10 11:31:03;;;;;;;19.57;7.00;;;;;;;;;;5090898;28;20429;-74
2022/06/10 11:33:35;;;;;;;18.90;8.80;;;;;;;;;;5091935;28;20441;-72
2022/06/10 11:36:05;;;;;;;17.40;7.00;;;;;;;;;;5094394;28;20496;-72
2022/06/10 11:38:34;;;;;;;19.47;7.83;;;;;;;;;;5094336;28;20981;-74
2022/06/10 11:41:14;;;;;;;21.37;7.80;;;;;;;;;;5093948;28;20448;-72
2022/06/10 11:43:45;;;;;;;20.03;8.40;;;;;;;;;;5094276;28;20456;-74
2022/06/10 11:46:16;;;;;;;20.50;9.00;;;;;;;;;;5094237;28;20449;-74
2022/06/10 11:48:48;;;;;;;20.17;8.20;;;;;;;;;;5094159;28;20496;-73
2022/06/10 11:51:18;;;;;;;23.30;9.30;;;;;;;;;;5093917;28;20450;-74
2022/06/10 11:53:49;;;;;;;20.07;8.37;;;;;;;;;;5094296;28;20526;-73
2022/06/10 12:01:52;;;;;;;19.90;8.07;;;;;;;;;;5093926;28;20487;-72
2022/06/10 12:04:25;;;;;;;21.77;9.57;;;;;;;;;;5093683;28;20449;-73
2022/06/10 12:06:54;;;;;;;21.60;9.07;;;;;;;;;;5093742;28;20447;-73
2022/06/10 12:09:24;;;;;;;22.07;9.33;;;;;;;;;;5093559;28;20493;-72
2022/06/10 12:11:54;;;;;;;19.00;7.83;;;;;;;;;;5093707;28;20525;-72
2022/06/10 12:14:23;;;;;;;29.43;7.80;;;;;;;;;;5093567;28;20442;-74
2022/06/10 12:16:53;;;;;;;19.03;8.10;;;;;;;;;;5093576;28;20438;-73
2022/06/10 12:19:27;;;;;;;21.30;9.27;;;;;;;;;;5093270;28;20454;-74
2022/06/10 12:21:54;;;;;;;25.27;9.80;;;;;;;;;;5093610;28;20448;-73
2022/06/10 12:24:22;;;;;;;22.90;8.97;;;;;;;;;;5093367;28;20478;-74
2022/06/10 12:26:53;;;;;;;20.90;9.33;;;;;;;;;;5093365;28;20966;-73
2022/06/10 12:29:25;;;;;;;23.53;10.90;;;;;;;;;;5093225;28;20475;-73
2022/06/10 12:31:58;;;;;;;20.47;8.60;;;;;;;;;;5093517;28;20487;-73
2022/06/10 12:34:33;;;;;;;21.73;10.10;;;;;;;;;;5093404;28;20446;-73
2022/06/10 12:37:02;;;;;;;22.20;9.60;;;;;;;;;;5093011;28;20438;-74
2022/06/10 12:39:32;;;;;;;19.57;7.33;;;;;;;;;;5093056;28;20446;-75
2022/06/10 12:42:03;;;;;;;19.73;7.00;;;;;;;;;;5092772;28;20446;-73
2022/06/10 12:44:31;;;;;;;19.70;7.97;;;;;;;;;;5092819;28;21015;-74
2022/06/10 12:47:01;;;;;;;21.80;7.27;;;;;;;;;;5092374;28;20462;-73
2022/06/10 12:49:34;;;;;;;21.77;8.70;;;;;;;;;;5092808;28;20485;-72
2022/06/10 12:52:22;;;;;;;24.60;10.10;;;;;;;;;;5092833;28;20544;-73
2022/06/10 12:54:54;;;;;;;25.93;9.20;;;;;;;;;;5086508;28;20452;-73
2022/06/10 12:57:28;;;;;;;20.87;8.87;;;;;;;;;;5092535;28;20478;-74
2022/06/10 13:00:13;;;;;;;19.67;7.10;;;;;;;;;;5092689;28;20989;-73
2022/06/10 13:02:44;;;;;;;18.23;6.47;;;;;;;;;;5092625;28;20449;-73
2022/06/10 13:05:19;;;;;;;16.33;5.50;;;;;;;;;;5092896;28;20453;-74
2022/06/10 13:07:47;;;;;;;15.83;5.57;;;;;;;;;;5092575;28;20991;-73
2022/06/10 13:10:33;;;;;;;17.37;5.97;;;;;;;;;;5092555;28;20552;-74
2022/06/10 13:13:11;;;;;;;14.53;4.57;;;;;;;;;;5092321;28;20951;-74
2022/06/10 13:15:39;;;;;;;13.97;3.47;;;;;;;;;;5092452;28;20503;-74
2022/06/10 13:18:21;;;;;;;14.60;3.90;;;;;;;;;;5092479;28;20445;-74
2022/06/10 13:20:51;;;;;;;15.53;3.83;;;;;;;;;;5092301;28;20457;-74
2022/06/10 13:23:20;;;;;;;17.07;4.80;;;;;;;;;;5092118;28;20842;-74
2022/06/10 13:25:50;;;;;;;14.03;3.77;;;;;;;;;;5092426;28;20451;-74
2022/06/10 13:28:27;;;;;;;14.53;4.00;;;;;;;;;;5092216;28;20484;-74
2022/06/10 13:31:06;;;;;;;15.10;3.70;;;;;;;;;;5092144;28;20437;-74
2022/06/10 13:33:33;;;;;;;14.00;4.17;;;;;;;;;;5092061;28;20890;-73
2022/06/10 13:36:03;;;;;;;15.03;4.23;;;;;;;;;;5092234;28;20446;-73
2022/06/10 13:38:33;;;;;;;14.40;4.60;;;;;;;;;;5092082;28;20436;-74
2022/06/10 13:43:49;;;;;;;14.47;4.43;;;;;;;;;;5091975;28;20566;-75
2022/06/10 13:46:19;;;;;;;14.07;4.30;;;;;;;;;;5091859;28;20866;-73
2022/06/10 13:48:46;;;;;;;15.53;4.70;;;;;;;;;;5091655;28;20841;-74
2022/06/10 13:51:28;;;;;;;15.63;4.93;;;;;;;;;;5091486;28;20448;-73
2022/06/10 13:54:03;;;;;;;15.63;4.53;;;;;;;;;;5091704;28;20448;-74
2022/06/10 13:56:31;;;;;;;15.83;4.50;;;;;;;;;;5090979;28;20479;-74
2022/06/10 13:58:59;;;;;;;14.80;4.23;;;;;;;;;;5091980;28;20447;-74
2022/06/10 14:01:28;;;;;;;14.30;4.13;;;;;;;;;;5091566;28;20456;-73
2022/06/10 14:03:57;;;;;;;15.27;4.73;;;;;;;;;;5091525;28;20453;-73
2022/06/10 14:06:28;;;;;;;14.00;4.10;;;;;;;;;;5091583;28;20449;-74
2022/06/10 14:08:57;;;;;;;12.77;3.17;;;;;;;;;;5091371;28;20493;-74
2022/06/10 14:11:27;;;;;;;14.17;3.50;;;;;;;;;;5091450;28;20525;-74
2022/06/10 14:13:55;;;;;;;14.60;3.57;;;;;;;;;;5091614;28;20442;-74
2022/06/10 14:16:23;;;;;;;14.33;3.60;;;;;;;;;;5091332;28;20820;-74
2022/06/10 14:18:51;;;;;;;15.07;3.20;;;;;;;;;;5091316;28;20826;-74
2022/06/10 14:21:19;;;;;;;13.40;3.17;;;;;;;;;;5090993;28;20445;-74
2022/06/10 14:24:08;;;;;;;13.90;2.80;;;;;;;;;;5091487;28;20468;-75
2022/06/10 14:26:38;;;;;;;13.87;3.53;;;;;;;;;;5091241;28;20594;-73
2022/06/10 14:29:17;;;;;;;13.47;3.40;;;;;;;;;;5090848;28;20545;-74
2022/06/10 14:31:46;;;;;;;14.17;3.97;;;;;;;;;;5091429;28;20430;-74
2022/06/10 14:34:16;;;;;;;12.90;2.73;;;;;;;;;;5091333;28;20452;-73
2022/06/10 14:36:51;;;;;;;16.87;4.30;;;;;;;;;;5091046;28;21011;-73
2022/06/10 14:39:23;;;;;;;16.10;4.23;;;;;;;;;;5084888;28;20444;-73
2022/06/10 14:41:52;;;;;;;15.87;4.30;;;;;;;;;;5090308;28;20441;-73
2022/06/10 14:44:21;;;;;;;17.40;4.30;;;;;;;;;;5090756;28;20430;-74
2022/06/10 14:47:04;;;;;;;15.90;4.83;;;;;;;;;;5090234;28;20458;-77
2022/06/10 14:49:39;;;;;;;16.43;4.70;;;;;;;;;;5059311;28;20490;-75
2022/06/10 14:52:10;;;;;;;14.23;4.20;;;;;;;;;;5082264;28;21354;-75
2022/06/10 14:54:40;;;;;;;16.20;5.50;;;;;;;;;;5080440;28;20485;-75
2022/06/10 14:57:07;;;;;;;16.60;4.53;;;;;;;;;;5076990;28;20484;-75
2022/06/10 14:59:35;;;;;;;15.90;4.77;;;;;;;;;;5077015;28;20562;-71
2022/06/10 15:02:03;;;;;;;15.57;5.53;;;;;;;;;;5079238;28;20478;-72
2022/06/10 15:04:30;;;;;;;14.10;4.90;;;;;;;;;;5087746;28;20487;-72
2022/06/10 15:06:59;;;;;;;16.30;4.70;;;;;;;;;;5071872;28;20470;-72
2022/06/10 15:09:31;;;;;;;15.10;3.90;;;;;;;;;;5072325;28;20480;-71
2022/06/10 15:12:06;;;;;;;15.20;4.20;;;;;;;;;;5073963;28;20832;-71